Time;durP1;ratioP1;P1;durP2;ratioP2;P2;SDS_P1;SDS_P2;PMS_P1;PMS_P2;Temp;Humidity;BMP_temperature;BMP_pressure;BME280_temperature;BME280_humidity;BME280_pressure;Samples;Min_cycle;Max_cycle;Signal;HPM_P1;HPM_P2
2024/03/16 00:00:06;;;;;;;5.90;0.60;;;11.30;99.90;;;;;;4989016;28;20050;-84
2024/03/16 00:02:32;;;;;;;;;;;11.30;99.90;;;;;;4997494;28;20046;-85
2024/03/16 00:04:58;;;;;;;5.57;1.00;;;11.30;99.90;;;;;;5008053;28;20218;-84
2024/03/16 00:07:24;;;;;;;1.25;0.68;;;11.30;99.90;;;;;;4981709;28;20041;-84
2024/03/16 00:09:50;;;;;;;8.52;1.27;;;11.30;99.90;;;;;;4991405;28;20142;-84
2024/03/16 00:12:16;;;;;;;4.50;0.80;;;11.30;99.90;;;;;;4988591;28;20482;-81
2024/03/16 00:14:44;;;;;;;6.82;1.25;;;11.30;99.90;;;;;;4984362;28;20087;-83
2024/03/16 00:17:09;;;;;;;14.48;2.42;;;11.30;99.90;;;;;;4989171;28;20041;-83
2024/03/16 00:19:35;;;;;;;7.30;0.50;;;11.30;99.90;;;;;;4991493;28;20050;-84
2024/03/16 00:22:01;;;;;;;15.63;1.30;;;11.30;99.90;;;;;;4992431;28;20494;-84
2024/03/16 00:24:26;;;;;;;5.57;1.10;;;11.30;99.90;;;;;;4981266;28;20031;-84
2024/03/16 00:26:52;;;;;;;9.70;1.48;;;11.30;99.90;;;;;;4990159;28;20042;-82
2024/03/16 00:29:18;;;;;;;1.77;0.63;;;11.30;99.90;;;;;;4974415;28;20046;-85
2024/03/16 00:31:43;;;;;;;5.05;0.52;;;11.30;99.90;;;;;;4987516;28;20042;-83
2024/03/16 00:34:09;;;;;;;8.52;1.25;;;11.30;99.90;;;;;;4990631;28;20502;-82
2024/03/16 00:36:35;;;;;;;4.97;1.08;;;11.30;99.90;;;;;;5006142;28;20042;-85
2024/03/16 00:39:01;;;;;;;7.22;1.40;;;11.30;99.90;;;;;;4989494;28;20046;-85
2024/03/16 00:41:27;;;;;;;4.75;0.90;;;11.30;99.90;;;;;;4991818;28;20038;-84
2024/03/16 00:43:52;;;;;;;10.10;1.00;;;11.30;99.90;;;;;;4991863;28;20122;-83
2024/03/16 00:46:18;;;;;;;12.18;0.90;;;11.20;99.90;;;;;;4991249;28;20487;-82
2024/03/16 00:48:44;;;;;;;3.95;0.90;;;11.20;99.90;;;;;;5006846;28;20042;-76
2024/03/16 00:51:13;;;;;;;3.03;1.20;;;11.20;99.90;;;;;;4976694;28;20555;-76
2024/03/16 00:53:41;;;;;;;2.25;1.08;;;11.10;99.90;;;;;;4987980;28;20047;-76
2024/03/16 00:56:09;;;;;;;4.18;1.42;;;11.00;99.90;;;;;;4973848;28;20043;-78
2024/03/16 00:58:36;;;;;;;7.88;0.80;;;11.00;99.90;;;;;;4990191;28;20112;-80
2024/03/16 01:01:03;;;;;;;8.65;1.08;;;11.00;99.90;;;;;;4985918;28;20519;-79
2024/03/16 01:03:29;;;;;;;10.80;1.50;;;10.90;99.90;;;;;;4988330;28;20045;-80
2024/03/16 01:05:54;;;;;;;5.05;0.77;;;10.90;99.90;;;;;;5005552;28;20043;-81
2024/03/16 01:08:20;;;;;;;12.18;1.08;;;10.90;99.90;;;;;;4988178;28;20097;-82
2024/03/16 01:10:51;;;;;;;2.83;1.05;;;10.90;99.90;;;;;;4988956;28;20085;-81
2024/03/16 01:13:17;;;;;;;8.30;1.30;;;10.80;99.90;;;;;;4985860;28;20121;-84
2024/03/16 01:15:43;;;;;;;3.05;0.88;;;10.90;99.90;;;;;;4987442;28;20674;-83
2024/03/16 01:18:08;;;;;;;6.07;1.40;;;10.80;99.90;;;;;;5006230;28;20113;-82
2024/03/16 01:20:34;;;;;;;5.78;1.83;;;10.80;99.90;;;;;;4988773;28;20034;-82
2024/03/16 01:23:00;;;;;;;8.70;2.25;;;10.80;99.90;;;;;;5004625;28;20053;-84
2024/03/16 01:25:26;;;;;;;11.50;3.15;;;10.80;99.90;;;;;;4973864;28;20103;-85
2024/03/16 01:27:51;;;;;;;13.57;3.03;;;10.80;99.90;;;;;;4988582;28;21159;-82
2024/03/16 01:30:17;;;;;;;6.43;1.65;;;10.80;99.90;;;;;;4989575;28;20134;-83
2024/03/16 01:32:43;;;;;;;6.20;2.55;;;10.80;99.90;;;;;;5003635;28;20668;-82
2024/03/16 01:35:09;;;;;;;7.78;2.45;;;10.70;99.90;;;;;;4974681;28;20038;-81
2024/03/16 01:37:35;;;;;;;3.38;1.92;;;10.70;99.90;;;;;;4988396;28;20479;-84
2024/03/16 01:40:02;;;;;;;5.47;2.17;;;10.80;99.90;;;;;;4979699;28;20329;-83
2024/03/16 01:42:27;;;;;;;8.55;2.20;;;10.70;99.90;;;;;;4986703;28;20035;-82
2024/03/16 01:45:08;;;;;;;4.57;2.65;;;10.70;99.90;;;;;;4970285;28;20425;-83
2024/03/16 01:47:33;;;;;;;5.78;2.65;;;10.70;99.90;;;;;;5004107;28;20133;-82
2024/03/16 01:49:59;;;;;;;14.30;2.97;;;10.70;99.90;;;;;;4974992;28;20368;-82
2024/03/16 01:52:28;;;;;;;7.38;2.40;;;10.70;99.90;;;;;;4987947;28;20133;-83
2024/03/16 01:54:54;;;;;;;4.88;2.08;;;10.60;99.90;;;;;;4987870;28;20124;-84
2024/03/16 01:57:20;;;;;;;6.78;1.80;;;10.60;99.90;;;;;;4985490;28;20471;-82
2024/03/16 01:59:45;;;;;;;7.47;1.80;;;10.60;99.90;;;;;;5004816;28;20042;-84
2024/03/16 02:02:32;;;;;;;12.20;3.25;;;10.50;99.90;;;;;;4987773;28;20070;-82
2024/03/16 02:04:57;;;;;;;3.45;1.02;;;10.50;99.90;;;;;;4987054;28;20049;-85
2024/03/16 02:07:23;;;;;;;2.95;0.43;;;10.50;99.90;;;;;;4989345;28;20121;-84
2024/03/16 02:09:49;;;;;;;7.50;1.88;;;10.40;99.90;;;;;;4988190;28;20034;-80
2024/03/16 02:12:14;;;;;;;4.88;1.35;;;10.40;99.90;;;;;;4995155;28;20041;-82
2024/03/16 02:14:40;;;;;;;4.90;1.15;;;10.40;99.90;;;;;;5004664;28;20035;-80
2024/03/16 02:17:09;;;;;;;11.18;1.23;;;10.30;99.90;;;;;;4985646;28;20487;-79
2024/03/16 02:19:35;;;;;;;8.27;1.65;;;10.30;99.90;;;;;;4987513;28;20038;-79
2024/03/16 02:22:03;;;;;;;4.60;0.80;;;10.20;99.90;;;;;;4973825;28;20046;-79
2024/03/16 02:24:29;;;;;;;1.67;0.80;;;10.20;99.90;;;;;;5005171;28;20487;-80
2024/03/16 02:26:56;;;;;;;0.60;0.50;;;10.10;99.90;;;;;;5004365;28;20050;-82
2024/03/16 02:29:22;;;;;;;5.57;0.88;;;10.10;99.90;;;;;;4984038;28;20079;-83
2024/03/16 02:31:48;;;;;;;3.58;1.13;;;10.10;99.90;;;;;;4996455;28;20050;-82
2024/03/16 02:34:14;;;;;;;8.80;1.30;;;10.00;99.90;;;;;;4988896;28;20042;-82
2024/03/16 02:36:39;;;;;;;2.85;0.73;;;10.00;99.90;;;;;;4988853;28;20070;-80
2024/03/16 02:39:05;;;;;;;2.97;0.50;;;10.00;99.90;;;;;;4987357;28;20387;-83
2024/03/16 02:41:31;;;;;;;1.75;0.57;;;9.90;99.90;;;;;;4985471;28;20038;-82
2024/03/16 02:43:57;;;;;;;0.63;0.50;;;9.80;99.90;;;;;;4984343;28;20038;-82
2024/03/16 02:46:22;;;;;;;1.95;0.80;;;9.80;99.90;;;;;;4974240;28;20085;-81
2024/03/16 02:48:48;;;;;;;2.17;0.65;;;9.80;99.90;;;;;;5002553;28;20077;-84
2024/03/16 02:51:14;;;;;;;1.10;0.20;;;9.60;99.90;;;;;;4986172;28;20034;-84
2024/03/16 02:53:40;;;;;;;3.03;0.17;;;9.40;99.90;;;;;;4986219;28;20048;-80
2024/03/16 02:56:06;;;;;;;2.38;0.38;;;9.20;99.90;;;;;;4990634;28;20046;-83
2024/03/16 02:58:32;;;;;;;0.10;0.08;;;9.20;99.90;;;;;;4986064;28;20034;-84
2024/03/16 03:00:57;;;;;;;0.10;0.10;;;9.10;99.90;;;;;;4988851;28;20339;-84
2024/03/16 03:03:24;;;;;;;0.65;0.40;;;8.90;99.90;;;;;;4988923;28;20045;-82
2024/03/16 03:05:50;;;;;;;0.08;0.08;;;8.90;99.90;;;;;;4987558;28;20042;-84
2024/03/16 03:08:16;;;;;;;0.15;0.00;;;8.80;99.90;;;;;;5003799;28;20050;-81
2024/03/16 03:10:42;;;;;;;0.47;0.25;;;8.80;99.90;;;;;;5000804;28;20955;-79
2024/03/16 03:13:08;;;;;;;0.10;0.10;;;8.70;99.90;;;;;;4987049;28;20045;-81
2024/03/16 03:15:35;;;;;;;0.10;0.00;;;8.70;99.90;;;;;;4981140;28;20034;-82
2024/03/16 03:18:01;;;;;;;0.00;0.00;;;8.60;99.90;;;;;;4970107;28;20038;-81
2024/03/16 03:20:26;;;;;;;2.53;0.22;;;8.60;99.90;;;;;;4983535;28;20109;-82
2024/03/16 03:22:52;;;;;;;1.85;0.15;;;8.50;99.90;;;;;;4969961;28;20438;-80
2024/03/16 03:25:19;;;;;;;0.00;0.00;;;8.50;99.90;;;;;;4984522;28;20046;-82
2024/03/16 03:27:44;;;;;;;0.00;0.00;;;8.50;99.90;;;;;;4984717;28;20030;-82
2024/03/16 03:30:10;;;;;;;2.05;0.45;;;8.50;99.90;;;;;;4987922;28;20046;-81
2024/03/16 03:32:36;;;;;;;0.30;0.20;;;8.40;99.90;;;;;;4985271;28;20035;-82
2024/03/16 03:35:01;;;;;;;0.20;0.20;;;8.40;99.90;;;;;;4974736;28;20053;-83
2024/03/16 03:37:27;;;;;;;0.30;0.05;;;8.40;99.90;;;;;;4975012;28;20062;-80
2024/03/16 03:39:53;;;;;;;0.28;0.10;;;8.40;99.90;;;;;;4984372;28;20414;-78
2024/03/16 03:42:19;;;;;;;0.80;0.20;;;8.40;99.90;;;;;;4987496;28;20076;-80
2024/03/16 03:45:00;;;;;;;0.20;0.10;;;8.40;99.90;;;;;;4989605;28;20096;-80
2024/03/16 03:47:40;;;;;;;0.10;0.00;;;8.40;99.90;;;;;;5005844;28;20372;-81
2024/03/16 03:50:09;;;;;;;0.47;0.10;;;8.40;99.90;;;;;;5005969;28;20509;-81
2024/03/16 03:52:37;;;;;;;0.35;0.00;;;8.40;99.90;;;;;;4992312;28;20050;-82
2024/03/16 03:55:03;;;;;;;0.00;0.00;;;8.30;99.90;;;;;;4985409;28;20057;-81
2024/03/16 03:57:28;;;;;;;0.00;0.00;;;8.30;99.90;;;;;;4991079;28;20046;-81
2024/03/16 03:59:54;;;;;;;1.20;0.20;;;8.30;99.90;;;;;;4987435;28;20100;-81
2024/03/16 04:02:20;;;;;;;0.57;0.00;;;8.30;99.90;;;;;;4990673;28;20037;-81
2024/03/16 04:04:45;;;;;;;0.03;0.03;;;8.30;99.90;;;;;;5008718;28;20038;-82
2024/03/16 04:07:11;;;;;;;0.10;0.03;;;8.30;99.90;;;;;;4986998;28;20526;-81
2024/03/16 04:09:37;;;;;;;0.40;0.00;;;8.20;99.90;;;;;;5007429;28;20046;-80
2024/03/16 04:12:02;;;;;;;0.35;0.10;;;8.30;99.90;;;;;;4990685;28;20045;-78
2024/03/16 04:14:28;;;;;;;0.00;0.00;;;8.30;99.90;;;;;;4990299;28;20034;-80
2024/03/16 04:16:54;;;;;;;0.10;0.00;;;8.30;99.90;;;;;;4991070;28;20035;-81
2024/03/16 04:19:19;;;;;;;0.10;0.00;;;8.20;99.90;;;;;;4990778;28;20069;-80
2024/03/16 04:21:49;;;;;;;0.73;0.15;;;8.20;99.90;;;;;;4990109;28;20077;-81
2024/03/16 04:24:15;;;;;;;0.00;0.00;;;8.00;99.90;;;;;;4990077;28;20049;-83
2024/03/16 04:26:41;;;;;;;0.13;0.10;;;8.00;99.90;;;;;;5005496;28;20125;-81
2024/03/16 04:29:06;;;;;;;0.32;0.25;;;8.00;99.90;;;;;;4990730;28;20041;-84
2024/03/16 04:31:32;;;;;;;0.57;0.17;;;7.90;99.90;;;;;;4972810;28;20149;-83
2024/03/16 04:33:58;;;;;;;0.10;0.08;;;7.90;99.90;;;;;;5006491;28;20121;-83
2024/03/16 04:36:23;;;;;;;0.80;0.22;;;7.80;99.90;;;;;;4972636;28;20061;-83
2024/03/16 04:38:49;;;;;;;0.40;0.10;;;7.80;99.90;;;;;;4990389;28;20050;-83
2024/03/16 04:41:15;;;;;;;0.98;0.28;;;7.80;99.90;;;;;;4991657;28;20494;-84
2024/03/16 04:43:41;;;;;;;0.30;0.10;;;7.70;99.90;;;;;;4989104;28;20395;-83
2024/03/16 04:46:06;;;;;;;0.00;0.00;;;7.70;99.90;;;;;;4991153;28;20046;-84
2024/03/16 04:48:32;;;;;;;0.00;0.00;;;7.70;99.90;;;;;;4987653;28;20042;-82
2024/03/16 04:50:58;;;;;;;1.23;0.30;;;7.70;99.90;;;;;;4990754;28;20054;-82
2024/03/16 04:53:23;;;;;;;0.35;0.22;;;7.70;99.90;;;;;;5007567;28;20062;-83
2024/03/16 04:55:52;;;;;;;5.15;0.20;;;7.60;99.90;;;;;;4990273;28;20137;-82
2024/03/16 04:58:17;;;;;;;3.10;0.55;;;7.60;99.90;;;;;;4988508;28;20108;-83
2024/03/16 05:00:43;;;;;;;3.22;0.40;;;7.50;99.90;;;;;;4974976;28;20050;-84
2024/03/16 05:03:09;;;;;;;0.57;0.25;;;7.50;99.90;;;;;;4972193;28;20142;-84
2024/03/16 05:05:35;;;;;;;4.68;0.40;;;7.50;99.90;;;;;;4992945;28;20034;-84
2024/03/16 05:08:01;;;;;;;0.82;0.35;;;7.50;99.90;;;;;;4990633;28;20731;-84
2024/03/16 05:10:26;;;;;;;2.50;0.52;;;7.40;99.90;;;;;;5005941;28;20027;-84
2024/03/16 05:12:52;;;;;;;1.83;0.28;;;7.40;99.90;;;;;;4987825;28;20043;-84
2024/03/16 05:15:18;;;;;;;1.67;0.38;;;7.40;99.90;;;;;;4987940;28;20463;-83
2024/03/16 05:17:44;;;;;;;5.22;0.50;;;7.40;99.90;;;;;;5002632;28;20031;-84
2024/03/16 05:20:10;;;;;;;3.28;0.55;;;7.40;99.90;;;;;;4988656;28;20100;-82
2024/03/16 05:22:36;;;;;;;0.75;0.57;;;7.40;99.90;;;;;;4973081;28;20046;-84
2024/03/16 05:25:02;;;;;;;2.40;0.35;;;7.40;99.90;;;;;;4986586;28;20349;-80
2024/03/16 05:27:27;;;;;;;0.50;0.17;;;7.40;99.90;;;;;;5004807;28;20046;-83
2024/03/16 05:29:53;;;;;;;0.82;0.32;;;7.40;99.90;;;;;;5002082;28;20046;-83
2024/03/16 05:32:19;;;;;;;1.65;0.55;;;7.50;99.90;;;;;;4988810;28;20038;-83
2024/03/16 05:34:44;;;;;;;1.08;0.43;;;7.40;99.90;;;;;;4980888;28;20062;-83
2024/03/16 05:37:10;;;;;;;0.52;0.10;;;7.40;99.90;;;;;;4972565;28;20125;-83
2024/03/16 05:39:36;;;;;;;4.97;0.50;;;7.40;99.90;;;;;;4987942;28;20140;-83
2024/03/16 05:42:01;;;;;;;1.48;0.20;;;7.40;99.90;;;;;;4989684;28;20117;-80
2024/03/16 05:44:27;;;;;;;1.13;0.10;;;7.40;99.90;;;;;;4988789;28;20050;-84
2024/03/16 05:46:53;;;;;;;2.17;0.30;;;7.50;99.90;;;;;;5004154;28;20039;-82
2024/03/16 05:49:18;;;;;;;4.15;0.57;;;7.40;99.90;;;;;;5004852;28;20092;-83
2024/03/16 05:51:44;;;;;;;1.08;0.20;;;7.30;99.90;;;;;;4988892;28;20034;-82
2024/03/16 05:54:10;;;;;;;1.95;0.10;;;7.30;99.90;;;;;;4988615;28;20038;-83
2024/03/16 05:56:37;;;;;;;2.00;0.20;;;7.30;99.90;;;;;;4986970;28;20050;-84
2024/03/16 05:59:02;;;;;;;0.20;0.10;;;7.30;99.90;;;;;;4987861;28;20046;-84
2024/03/16 06:01:28;;;;;;;0.28;0.10;;;7.30;99.90;;;;;;4972415;28;20517;-84
2024/03/16 06:03:55;;;;;;;5.05;0.35;;;7.30;99.90;;;;;;4979629;28;20038;-84
2024/03/16 06:06:21;;;;;;;10.93;0.52;;;7.30;99.90;;;;;;4981697;28;20443;-84
2024/03/16 06:08:46;;;;;;;2.30;0.30;;;7.30;99.90;;;;;;4984685;28;20084;-84
2024/03/16 06:11:12;;;;;;;0.20;0.10;;;7.20;99.90;;;;;;4971992;28;20574;-85
2024/03/16 06:13:38;;;;;;;3.25;0.20;;;7.30;99.90;;;;;;4987849;28;20207;-85
2024/03/16 06:16:04;;;;;;;0.73;0.35;;;7.20;99.90;;;;;;5001998;28;20043;-84
2024/03/16 06:18:29;;;;;;;1.85;0.40;;;7.30;99.90;;;;;;4987271;28;20458;-83
2024/03/16 06:20:55;;;;;;;1.38;0.30;;;7.20;99.90;;;;;;4988972;28;20053;-82
2024/03/16 06:23:21;;;;;;;1.13;0.25;;;7.20;99.90;;;;;;4971365;28;20635;-82
2024/03/16 06:25:47;;;;;;;6.32;0.38;;;7.20;99.90;;;;;;4972315;28;20103;-84
2024/03/16 06:28:16;;;;;;;6.57;0.50;;;7.20;99.90;;;;;;5002984;28;20042;-85
2024/03/16 06:30:59;;;;;;;0.43;0.10;;;7.20;99.90;;;;;;4986018;28;20042;-83
2024/03/16 06:33:30;;;;;;;4.45;0.93;;;7.20;99.90;;;;;;5000384;28;20081;-86
2024/03/16 06:35:56;;;;;;;1.65;0.45;;;7.20;99.90;;;;;;4982802;28;20038;-85
2024/03/16 06:38:22;;;;;;;2.20;0.25;;;7.20;99.90;;;;;;4983911;28;20073;-85
2024/03/16 06:40:49;;;;;;;0.52;0.15;;;7.20;99.90;;;;;;4987202;28;20066;-86
2024/03/16 06:43:15;;;;;;;4.28;0.38;;;7.30;99.90;;;;;;4992232;28;20034;-85
2024/03/16 06:45:42;;;;;;;0.47;0.20;;;7.20;99.90;;;;;;4988777;28;20046;-83
2024/03/16 06:48:07;;;;;;;0.13;0.10;;;7.30;99.90;;;;;;4987132;28;20038;-86
2024/03/16 06:50:35;;;;;;;0.38;0.13;;;7.30;99.90;;;;;;4982026;28;20049;-86
2024/03/16 06:53:01;;;;;;;0.40;0.10;;;7.30;99.90;;;;;;4968942;28;20038;-85
2024/03/16 06:55:26;;;;;;;0.73;0.40;;;7.30;99.90;;;;;;4986805;28;20061;-84
2024/03/16 06:57:52;;;;;;;0.00;0.00;;;7.30;99.90;;;;;;4971627;28;20387;-83
2024/03/16 07:00:18;;;;;;;3.42;0.20;;;7.30;99.90;;;;;;4986064;28;20046;-85
2024/03/16 07:02:44;;;;;;;0.88;0.30;;;7.30;99.90;;;;;;5003707;28;20042;-85
2024/03/16 07:05:09;;;;;;;0.03;0.00;;;7.30;99.90;;;;;;4998202;28;20467;-86
2024/03/16 07:07:35;;;;;;;0.40;0.05;;;7.30;99.90;;;;;;4985357;28;20561;-85
2024/03/16 07:10:05;;;;;;;1.75;0.30;;;7.30;99.90;;;;;;4985086;28;20038;-86
2024/03/16 07:12:33;;;;;;;4.03;0.32;;;7.30;99.90;;;;;;4984339;28;20034;-86
2024/03/16 07:14:59;;;;;;;3.25;0.05;;;7.30;99.90;;;;;;4988500;28;20042;-86
2024/03/16 07:17:26;;;;;;;0.00;0.00;;;7.30;99.90;;;;;;4982866;28;20046;-81
2024/03/16 07:19:54;;;;;;;11.43;0.45;;;7.40;99.90;;;;;;4987227;28;20498;-86
2024/03/16 07:22:19;;;;;;;1.27;0.25;;;7.40;99.90;;;;;;4973280;28;20038;-86
2024/03/16 07:24:45;;;;;;;0.03;0.00;;;7.40;99.90;;;;;;5001279;28;20041;-84
2024/03/16 07:27:11;;;;;;;0.47;0.00;;;7.40;99.90;;;;;;4981764;28;20502;-84
2024/03/16 07:29:37;;;;;;;0.52;0.20;;;7.40;99.90;;;;;;4988921;28;20042;-84
2024/03/16 07:32:02;;;;;;;3.60;0.17;;;7.40;99.90;;;;;;5001001;28;20101;-82
2024/03/16 07:34:28;;;;;;;2.20;0.20;;;7.50;99.90;;;;;;4986408;28;20126;-87
2024/03/16 07:36:54;;;;;;;0.47;0.10;;;7.50;99.90;;;;;;4986435;28;20718;-85
2024/03/16 07:39:21;;;;;;;0.68;0.17;;;7.50;99.90;;;;;;4987433;28;20034;-86
2024/03/16 07:41:46;;;;;;;0.05;0.05;;;7.60;99.90;;;;;;4986804;28;20097;-85
2024/03/16 07:44:12;;;;;;;1.23;0.10;;;7.60;99.90;;;;;;4989784;28;20526;-85
2024/03/16 07:46:41;;;;;;;0.20;0.00;;;7.60;99.90;;;;;;4983649;28;20051;-86
2024/03/16 07:49:07;;;;;;;3.72;0.63;;;7.60;99.90;;;;;;5000529;28;20042;-86
2024/03/16 07:51:33;;;;;;;0.10;0.10;;;7.60;99.90;;;;;;4985859;28;20092;-83
2024/03/16 07:54:00;;;;;;;0.05;0.05;;;7.70;99.90;;;;;;4985059;28;20509;-84
2024/03/16 07:56:26;;;;;;;0.70;0.15;;;7.60;99.90;;;;;;4988074;28;20051;-85
2024/03/16 07:58:51;;;;;;;0.85;0.10;;;7.70;99.90;;;;;;4996320;28;20112;-86
2024/03/16 08:01:17;;;;;;;1.33;0.17;;;7.70;99.90;;;;;;4966667;28;20050;-86
2024/03/16 08:03:43;;;;;;;1.20;0.15;;;7.70;99.90;;;;;;4970945;28;20054;-86
2024/03/16 08:06:09;;;;;;;2.30;0.22;;;7.70;99.90;;;;;;4985690;28;20046;-86
2024/03/16 08:08:35;;;;;;;0.00;0.00;;;7.80;99.90;;;;;;4981891;28;20077;-83
2024/03/16 08:11:00;;;;;;;4.18;0.47;;;7.80;99.90;;;;;;4985225;28;20486;-82
2024/03/16 08:13:27;;;;;;;0.00;0.00;;;7.90;99.90;;;;;;4988323;28;20065;-82
2024/03/16 08:15:53;;;;;;;2.40;0.55;;;7.90;99.90;;;;;;4972058;28;20173;-86
2024/03/16 08:18:19;;;;;;;2.30;0.10;;;7.90;99.90;;;;;;4969410;28;20114;-78
2024/03/16 08:20:45;;;;;;;5.05;0.38;;;7.90;99.90;;;;;;4973710;28;20578;-86
2024/03/16 08:23:10;;;;;;;0.00;0.00;;;7.90;99.90;;;;;;4991343;28;20121;-86
2024/03/16 08:25:36;;;;;;;1.45;0.22;;;7.90;99.90;;;;;;4992317;28;20125;-85
2024/03/16 08:28:02;;;;;;;0.57;0.28;;;8.00;99.90;;;;;;4989703;28;20062;-78
2024/03/16 08:30:28;;;;;;;1.27;0.30;;;8.00;99.90;;;;;;4987692;28;20038;-87
2024/03/16 08:32:54;;;;;;;0.70;0.13;;;8.00;99.90;;;;;;5000923;28;20030;-85
2024/03/16 08:35:20;;;;;;;0.00;0.00;;;7.90;99.90;;;;;;4973722;28;20475;-83
2024/03/16 08:37:46;;;;;;;0.13;0.10;;;8.10;99.90;;;;;;5003949;28;20034;-85
2024/03/16 08:40:11;;;;;;;3.10;0.32;;;8.20;99.90;;;;;;5001414;28;20113;-86
2024/03/16 08:42:40;;;;;;;0.20;0.10;;;8.40;99.90;;;;;;4990429;28;20046;-86
2024/03/16 08:45:07;;;;;;;2.55;0.57;;;8.50;99.90;;;;;;5004793;28;20089;-86
2024/03/16 08:47:36;;;;;;;2.17;0.52;;;8.50;99.90;;;;;;4975757;28;20499;-86
2024/03/16 08:50:04;;;;;;;0.20;0.00;;;8.60;99.90;;;;;;5001848;28;20113;-85
2024/03/16 08:52:30;;;;;;;0.00;0.00;;;8.60;99.90;;;;;;4980972;28;20436;-86
2024/03/16 08:54:56;;;;;;;0.40;0.03;;;8.60;99.90;;;;;;4987932;28;20413;-85
2024/03/16 08:57:22;;;;;;;1.95;0.08;;;8.60;99.90;;;;;;4992404;28;20469;-86
2024/03/16 08:59:48;;;;;;;0.35;0.22;;;8.70;99.90;;;;;;4990537;28;20050;-87
2024/03/16 09:02:14;;;;;;;2.45;0.40;;;8.70;99.90;;;;;;4983622;28;20495;-84
2024/03/16 09:04:40;;;;;;;4.25;0.30;;;8.70;99.90;;;;;;4974220;28;20123;-86
2024/03/16 09:07:06;;;;;;;0.32;0.10;;;8.80;99.90;;;;;;4973394;28;20034;-86
2024/03/16 09:09:32;;;;;;;2.03;0.15;;;8.80;99.90;;;;;;4974307;28;20548;-82
2024/03/16 09:11:58;;;;;;;0.17;0.15;;;9.00;99.90;;;;;;5006977;28;20062;-85
2024/03/16 09:14:23;;;;;;;1.10;0.00;;;9.30;99.90;;;;;;5006341;28;20073;-85
2024/03/16 09:16:49;;;;;;;1.38;0.20;;;9.40;99.90;;;;;;4980771;28;20469;-86
2024/03/16 09:19:15;;;;;;;0.03;0.00;;;9.40;99.90;;;;;;5004661;28;20038;-85
2024/03/16 09:21:40;;;;;;;4.15;0.85;;;9.50;99.90;;;;;;5005289;28;20046;-85
2024/03/16 09:24:06;;;;;;;0.52;0.15;;;9.40;99.90;;;;;;4990589;28;20461;-84
2024/03/16 09:26:32;;;;;;;1.80;0.25;;;9.30;99.90;;;;;;4989875;28;20566;-85
2024/03/16 09:28:58;;;;;;;1.17;0.10;;;9.30;99.90;;;;;;4986240;28;20117;-83
2024/03/16 09:31:24;;;;;;;0.00;0.00;;;9.20;99.90;;;;;;4988856;28;20142;-82
2024/03/16 09:33:50;;;;;;;0.13;0.03;;;9.20;99.90;;;;;;4985512;28;20042;-85
2024/03/16 09:36:16;;;;;;;4.32;0.32;;;9.00;99.90;;;;;;4989361;28;20042;-85
2024/03/16 09:38:42;;;;;;;4.35;0.28;;;8.90;99.90;;;;;;4989873;28;20065;-82
2024/03/16 09:41:20;;;;;;;1.30;0.10;;;8.90;99.90;;;;;;4984165;28;20046;-85
2024/03/16 09:43:47;;;;;;;0.40;0.00;;;8.80;99.90;;;;;;4989700;28;20050;-85
2024/03/16 09:46:13;;;;;;;0.40;0.00;;;8.70;99.90;;;;;;4993861;28;20220;-84
2024/03/16 09:48:39;;;;;;;0.10;0.10;;;8.60;99.90;;;;;;4987718;28;20407;-84
2024/03/16 09:51:05;;;;;;;9.45;1.00;;;8.60;99.90;;;;;;4980100;28;20501;-84
2024/03/16 09:53:34;;;;;;;0.13;0.10;;;8.60;99.90;;;;;;4990356;28;20050;-84
2024/03/16 09:56:04;;;;;;;0.10;0.00;;;8.60;99.90;;;;;;4972979;28;20053;-84
2024/03/16 09:58:37;;;;;;;4.18;0.10;;;8.60;99.90;;;;;;4990016;28;20039;-84
2024/03/16 10:01:04;;;;;;;0.68;0.20;;;8.60;99.90;;;;;;4990072;28;20088;-84
2024/03/16 10:03:34;;;;;;;0.10;0.10;;;8.80;99.90;;;;;;5001194;28;20129;-80
2024/03/16 10:06:04;;;;;;;0.95;0.10;;;9.00;99.90;;;;;;4991064;28;20057;-81
2024/03/16 10:08:36;;;;;;;0.20;0.10;;;9.20;99.90;;;;;;4985905;28;20092;-83
2024/03/16 10:11:14;;;;;;;0.20;0.00;;;9.40;99.90;;;;;;4984638;28;20274;-83
2024/03/16 10:13:54;;;;;;;3.13;0.17;;;9.50;99.90;;;;;;4988529;28;20560;-84
2024/03/16 10:16:20;;;;;;;0.50;0.20;;;9.60;99.90;;;;;;4987114;28;20113;-84
2024/03/16 10:18:55;;;;;;;10.32;0.75;;;9.70;99.90;;;;;;5001109;28;20124;-85
2024/03/16 10:21:21;;;;;;;1.55;0.20;;;9.90;99.90;;;;;;4986260;28;20086;-86
2024/03/16 10:23:47;;;;;;;2.92;0.17;;;10.40;99.90;;;;;;4971814;28;20502;-84
2024/03/16 10:26:13;;;;;;;3.15;0.20;;;10.70;99.90;;;;;;4987399;28;20042;-86
2024/03/16 10:28:41;;;;;;;0.00;0.00;;;10.70;99.90;;;;;;4987083;28;20058;-83
2024/03/16 10:31:09;;;;;;;0.25;0.15;;;10.60;99.90;;;;;;4980352;28;20501;-84
2024/03/16 10:33:39;;;;;;;3.33;0.10;;;10.50;99.90;;;;;;4988063;28;20084;-85
2024/03/16 10:36:15;;;;;;;2.83;0.32;;;10.40;99.90;;;;;;4984819;28;20050;-83
2024/03/16 10:38:42;;;;;;;1.75;0.00;;;10.10;99.90;;;;;;4986859;28;20514;-85
2024/03/16 10:41:10;;;;;;;5.07;0.38;;;10.00;99.90;;;;;;5003375;28;20152;-85
2024/03/16 10:43:38;;;;;;;0.20;0.10;;;9.80;99.90;;;;;;4988690;28;20042;-84
2024/03/16 10:46:09;;;;;;;0.22;0.13;;;9.70;99.90;;;;;;4987597;28;20095;-83
2024/03/16 10:48:36;;;;;;;0.00;0.00;;;9.70;99.90;;;;;;4991421;28;20050;-83
2024/03/16 10:51:05;;;;;;;0.20;0.20;;;9.70;99.90;;;;;;5002690;28;20066;-83
2024/03/16 10:53:31;;;;;;;1.65;0.28;;;9.80;99.90;;;;;;5000590;28;20665;-84
2024/03/16 10:55:58;;;;;;;3.33;0.03;;;9.90;99.90;;;;;;4981850;28;20050;-82
2024/03/16 10:58:25;;;;;;;1.95;0.10;;;10.00;99.90;;;;;;4988029;28;20043;-84
2024/03/16 11:01:07;;;;;;;0.80;0.25;;;10.10;99.90;;;;;;4987491;28;20046;-86
2024/03/16 11:03:38;;;;;;;0.60;0.00;;;10.10;99.90;;;;;;4983611;28;20042;-83
2024/03/16 11:06:10;;;;;;;0.20;0.00;;;10.20;99.90;;;;;;4983403;28;20121;-83
2024/03/16 11:08:48;;;;;;;2.08;0.05;;;10.20;99.90;;;;;;4993635;28;20057;-83
2024/03/16 11:11:28;;;;;;;1.75;0.75;;;10.20;99.90;;;;;;4999595;28;20121;-82
2024/03/16 11:14:00;;;;;;;0.00;0.00;;;10.10;99.90;;;;;;4985381;28;20063;-83
2024/03/16 11:16:35;;;;;;;0.10;0.10;;;10.10;99.90;;;;;;4980370;28;20394;-83
2024/03/16 11:19:08;;;;;;;0.00;0.00;;;10.10;99.90;;;;;;4978929;28;20387;-84
2024/03/16 11:21:37;;;;;;;0.45;0.20;;;10.10;99.90;;;;;;4983510;28;20054;-84
2024/03/16 11:24:05;;;;;;;0.05;0.00;;;10.00;99.90;;;;;;4970842;28;20046;-82
2024/03/16 11:26:37;;;;;;;0.22;0.05;;;10.10;99.90;;;;;;4985466;28;20374;-84
2024/03/16 11:29:16;;;;;;;1.35;0.20;;;10.20;99.90;;;;;;4988667;28;20441;-83
2024/03/16 11:31:49;;;;;;;9.65;0.47;;;10.20;99.90;;;;;;4984402;28;20050;-84
2024/03/16 11:34:22;;;;;;;3.40;0.38;;;10.10;99.90;;;;;;4977634;28;20046;-83
2024/03/16 11:36:49;;;;;;;0.32;0.05;;;10.10;99.90;;;;;;4981754;28;20109;-84
2024/03/16 11:39:25;;;;;;;1.33;0.03;;;10.10;99.90;;;;;;4986866;28;20050;-81
2024/03/16 11:41:56;;;;;;;0.20;0.13;;;10.00;99.90;;;;;;4984983;28;20073;-82
2024/03/16 11:44:22;;;;;;;5.00;0.10;;;9.90;99.90;;;;;;4985643;28;20486;-83
2024/03/16 11:46:49;;;;;;;0.85;0.10;;;9.90;99.90;;;;;;4975616;28;20042;-83
2024/03/16 11:49:16;;;;;;;0.03;0.00;;;9.90;99.90;;;;;;4984808;28;20061;-83
2024/03/16 11:51:43;;;;;;;0.38;0.20;;;9.80;99.90;;;;;;4987733;28;20070;-82
2024/03/16 11:54:10;;;;;;;0.43;0.10;;;9.80;99.90;;;;;;4983448;28;20042;-82
2024/03/16 11:56:36;;;;;;;3.63;0.32;;;9.70;99.90;;;;;;4990180;28;20053;-82
2024/03/16 11:59:04;;;;;;;0.00;0.00;;;9.90;99.90;;;;;;4991558;28;20054;-83
2024/03/16 12:01:31;;;;;;;0.00;0.00;;;10.00;99.90;;;;;;4987045;28;20048;-83
2024/03/16 12:03:58;;;;;;;0.00;0.00;;;10.30;99.90;;;;;;4988165;28;20117;-85
2024/03/16 12:06:25;;;;;;;3.30;0.22;;;11.20;99.90;;;;;;4987651;28;20078;-83
2024/03/16 12:08:51;;;;;;;0.17;0.17;;;12.20;99.90;;;;;;4984212;28;20050;-84
2024/03/16 12:11:18;;;;;;;1.55;0.17;;;12.30;99.90;;;;;;4990294;28;20097;-85
2024/03/16 12:13:45;;;;;;;0.03;0.00;;;12.30;99.90;;;;;;4973768;28;20042;-83
2024/03/16 12:16:10;;;;;;;7.68;0.65;;;12.50;99.90;;;;;;4999159;28;20042;-84
2024/03/16 12:18:40;;;;;;;1.23;0.25;;;12.40;99.90;;;;;;5008028;28;20034;-83
2024/03/16 12:21:06;;;;;;;0.65;0.40;;;12.20;99.90;;;;;;4992036;28;20088;-83
2024/03/16 12:23:36;;;;;;;1.08;0.10;;;11.80;99.90;;;;;;4991722;28;20038;-83
2024/03/16 12:26:02;;;;;;;1.67;0.00;;;11.50;99.90;;;;;;5003555;28;20065;-80
2024/03/16 12:28:29;;;;;;;0.68;0.13;;;11.20;99.90;;;;;;4978846;28;20038;-83
2024/03/16 12:30:58;;;;;;;1.05;0.17;;;10.80;99.90;;;;;;4990874;28;20041;-81
2024/03/16 12:33:27;;;;;;;1.27;0.20;;;10.50;99.90;;;;;;5007235;28;20130;-81
2024/03/16 12:35:53;;;;;;;2.03;0.40;;;10.20;99.90;;;;;;4975292;28;20046;-81
2024/03/16 12:38:19;;;;;;;0.65;0.03;;;10.20;99.90;;;;;;4991380;28;20042;-83
2024/03/16 12:40:45;;;;;;;3.55;0.43;;;10.10;99.90;;;;;;5003948;28;20042;-81
2024/03/16 12:43:10;;;;;;;1.27;0.28;;;10.10;99.90;;;;;;5007963;28;20038;-82
2024/03/16 12:45:36;;;;;;;0.00;0.00;;;10.20;99.90;;;;;;4990517;28;20047;-82
2024/03/16 12:48:02;;;;;;;0.10;0.00;;;10.40;99.90;;;;;;5006959;28;20046;-81
2024/03/16 12:50:28;;;;;;;1.08;0.10;;;10.70;99.90;;;;;;4991003;28;20099;-82